createdAt,value
2019-05-01T00:02:46.715Z,70.70
2019-05-01T00:05:20.861Z,70.80
2019-05-01T00:07:51.351Z,71.00
2019-05-01T00:10:23.873Z,71.10
2019-05-01T00:12:55.257Z,70.50
2019-05-01T00:15:27.499Z,70.60
2019-05-01T00:17:58.100Z,70.60
2019-05-01T00:20:28.288Z,70.10
2019-05-01T00:22:59.172Z,69.80
2019-05-01T00:25:31.065Z,70.00
2019-05-01T00:28:01.531Z,70.30
2019-05-01T00:30:32.075Z,70.40
2019-05-01T00:33:01.937Z,70.50
2019-05-01T00:35:32.546Z,70.40
2019-05-01T00:38:05.380Z,70.10
2019-05-01T00:40:36.009Z,69.90
2019-05-01T00:43:07.878Z,69.30
2019-05-01T00:45:38.126Z,68.90
2019-05-01T00:48:08.583Z,69.30
2019-05-01T00:50:39.225Z,69.50
2019-05-01T00:53:09.623Z,69.70
2019-05-01T00:56:04.720Z,69.80
2019-05-01T00:59:07.463Z,69.90
2019-05-01T01:01:55.405Z,70.10
2019-05-01T01:04:26.369Z,70.60
2019-05-01T01:06:56.622Z,71.00
2019-05-01T01:09:27.492Z,71.00
2019-05-01T01:11:58.475Z,71.80
2019-05-01T01:14:29.023Z,70.70
2019-05-01T01:16:59.607Z,70.80
2019-05-01T01:19:30.105Z,71.00
2019-05-01T01:22:00.419Z,71.00
2019-05-01T01:24:31.643Z,71.20
2019-05-01T01:27:02.971Z,71.40
2019-05-01T01:29:33.249Z,71.40
2019-05-01T01:32:05.464Z,71.70
2019-05-01T01:34:37.249Z,71.50
2019-05-01T01:37:07.769Z,71.80
2019-05-01T01:39:38.195Z,72.10
2019-05-01T01:42:11.117Z,72.40
2019-05-01T01:44:50.669Z,72.80
2019-05-01T01:47:21.440Z,73.20
2019-05-01T01:49:52.008Z,73.60
2019-05-01T01:52:22.620Z,74.00
2019-05-01T01:54:53.163Z,74.40
2019-05-01T01:57:23.828Z,74.80
2019-05-01T01:59:54.270Z,75.10
2019-05-01T02:02:38.991Z,75.50
2019-05-01T02:05:28.507Z,76.00
2019-05-01T02:07:58.727Z,76.40
2019-05-01T02:10:41.805Z,76.80
2019-05-01T02:13:00.659Z,77.10
2019-05-01T02:15:31.304Z,77.30
2019-05-01T02:18:02.056Z,77.40
2019-05-01T02:20:32.588Z,77.30
2019-05-01T02:23:02.771Z,77.20
2019-05-01T02:25:34.900Z,77.20
2019-05-01T02:28:34.905Z,77.20
2019-05-01T02:31:27.765Z,77.20
2019-05-01T02:33:49.689Z,77.30
2019-05-01T02:36:22.976Z,77.20
2019-05-01T02:38:54.013Z,77.40
2019-05-01T02:41:24.535Z,77.50
2019-05-01T02:43:56.387Z,77.50
2019-05-01T02:46:26.656Z,77.40
2019-05-01T02:49:03.429Z,77.20
2019-05-01T02:51:33.567Z,77.00
2019-05-01T02:54:07.901Z,76.70
2019-05-01T02:56:47.414Z,76.00
2019-05-01T02:59:17.658Z,75.90
2019-05-01T03:01:48.411Z,75.60
2019-05-01T03:04:18.799Z,75.30
2019-05-01T03:06:49.629Z,74.80
2019-05-01T03:09:21.006Z,74.50
2019-05-01T03:11:54.013Z,73.90
2019-05-01T03:14:29.197Z,73.90
2019-05-01T03:17:00.612Z,73.80
2019-05-01T03:19:54.865Z,73.90
2019-05-01T03:22:40.989Z,74.40
2019-05-01T03:25:11.589Z,74.40
2019-05-01T03:27:43.221Z,74.30
2019-05-01T03:30:13.530Z,74.00
2019-05-01T03:32:44.281Z,74.50
2019-05-01T03:35:14.434Z,74.70
2019-05-01T03:37:44.900Z,74.90
2019-05-01T03:40:15.511Z,74.80
2019-05-01T03:42:47.569Z,74.90
2019-05-01T03:45:17.976Z,75.10
2019-05-01T03:47:48.755Z,75.30
2019-05-01T03:50:22.242Z,75.40
2019-05-01T03:52:56.053Z,74.80
2019-05-01T03:55:28.468Z,74.80
2019-05-01T03:58:00.541Z,74.60
2019-05-01T04:00:43.965Z,74.50
2019-05-01T04:03:22.957Z,74.10
2019-05-01T04:05:56.572Z,74.20
2019-05-01T04:08:26.693Z,74.40
2019-05-01T04:10:57.282Z,74.20
2019-05-01T04:13:28.023Z,73.70
2019-05-01T04:15:59.564Z,73.50
2019-05-01T04:18:29.794Z,73.40
2019-05-01T04:21:00.129Z,73.20
2019-05-01T04:23:30.224Z,73.10
2019-05-01T04:26:02.728Z,73.40
2019-05-01T04:28:52.116Z,73.70
2019-05-01T04:31:32.037Z,73.70
2019-05-01T04:34:06.020Z,73.70
2019-05-01T04:36:40.009Z,73.60
2019-05-01T04:39:10.543Z,73.70
2019-05-01T04:41:41.109Z,74.50
2019-05-01T04:44:16.241Z,74.00
2019-05-01T04:46:46.245Z,74.10
2019-05-01T04:49:18.569Z,73.80
2019-05-01T04:51:49.234Z,73.70
2019-05-01T04:54:19.914Z,73.60
2019-05-01T04:56:50.804Z,73.70
2019-05-01T04:59:25.313Z,73.80
2019-05-01T05:02:01.017Z,73.60
2019-05-01T05:04:31.716Z,73.60
2019-05-01T05:07:04.216Z,73.60
2019-05-01T05:09:44.039Z,73.30
2019-05-01T05:12:21.993Z,73.40
2019-05-01T05:14:56.191Z,73.40
2019-05-01T05:17:27.042Z,73.50
2019-05-01T05:19:57.302Z,73.50
2019-05-01T05:22:28.166Z,73.50
2019-05-01T05:24:58.194Z,73.20
2019-05-01T05:27:28.662Z,73.10
2019-05-01T05:29:59.952Z,73.20
2019-05-01T05:32:30.568Z,73.00
2019-05-01T05:35:01.481Z,73.30
2019-05-01T05:37:37.976Z,73.50
2019-05-01T05:40:08.040Z,73.70
2019-05-01T05:42:40.482Z,73.80
2019-05-01T05:45:10.698Z,73.90
2019-05-01T05:47:41.297Z,73.80
2019-05-01T05:50:13.646Z,73.90
2019-05-01T05:52:48.663Z,73.90
2019-05-01T05:55:25.151Z,73.90
2019-05-01T05:58:02.943Z,73.80
2019-05-01T06:00:56.455Z,74.10
2019-05-01T06:04:04.428Z,74.30
2019-05-01T06:06:46.304Z,74.30
2019-05-01T06:09:16.975Z,74.60
2019-05-01T06:12:10.856Z,74.70
2019-05-01T06:15:06.397Z,74.70
2019-05-01T06:17:40.678Z,74.70
2019-05-01T06:20:20.927Z,74.50
2019-05-01T06:23:08.601Z,74.30
2019-05-01T06:25:38.761Z,74.70
2019-05-01T06:28:09.264Z,74.70
2019-05-01T06:30:42.129Z,74.50
2019-05-01T06:33:11.545Z,74.80
2019-05-01T06:35:41.921Z,75.10
2019-05-01T06:38:15.100Z,74.60
2019-05-01T06:40:46.575Z,74.60
2019-05-01T06:43:27.281Z,74.80
2019-05-01T06:46:17.341Z,74.60
2019-05-01T06:48:54.694Z,74.60
2019-05-01T06:51:42.336Z,74.50
2019-05-01T06:54:16.405Z,75.10
2019-05-01T06:56:46.686Z,75.50
2019-05-01T06:59:16.686Z,75.40
2019-05-01T07:01:46.987Z,74.90
2019-05-01T07:04:21.838Z,75.40
2019-05-01T07:06:53.851Z,75.70
2019-05-01T07:09:28.124Z,76.20
2019-05-01T07:11:56.158Z,76.20
2019-05-01T07:14:26.524Z,76.20
2019-05-01T07:16:56.582Z,75.80
2019-05-01T07:19:59.068Z,75.90
2019-05-01T07:22:28.743Z,76.10
2019-05-01T07:25:04.107Z,75.50
2019-05-01T07:27:33.515Z,76.00
2019-05-01T07:30:22.662Z,76.80
2019-05-01T07:32:52.959Z,76.20
2019-05-01T07:35:23.348Z,76.30
2019-05-01T07:38:14.750Z,76.20
2019-05-01T07:44:19.638Z,75.00
2019-05-01T07:47:09.015Z,74.60
2019-05-01T07:49:54.704Z,75.10
2019-05-01T07:52:25.002Z,74.20
2019-05-01T07:54:58.290Z,73.80
2019-05-01T07:57:28.343Z,74.10
2019-05-01T08:00:03.551Z,73.90
2019-05-01T08:02:32.716Z,73.50
2019-05-01T08:05:40.758Z,73.30
2019-05-01T08:08:12.736Z,73.90
2019-05-01T08:10:44.500Z,73.30
2019-05-01T08:13:14.112Z,73.40
2019-05-01T08:15:49.642Z,73.60
2019-05-01T08:18:27.943Z,72.50
2019-05-01T08:21:12.185Z,72.00
2019-05-01T08:23:42.807Z,71.70
2019-05-01T08:26:14.623Z,71.30
2019-05-01T08:29:07.117Z,70.00
2019-05-01T08:31:47.044Z,70.10
2019-05-01T08:37:30.450Z,69.10
2019-05-01T08:40:03.418Z,68.90
2019-05-01T08:49:01.557Z,69.60
2019-05-01T08:51:34.876Z,69.50
2019-05-01T08:54:06.843Z,69.40
2019-05-01T08:56:37.005Z,68.60
2019-05-01T08:59:28.263Z,68.00
2019-05-01T09:04:47.225Z,66.70
2019-05-01T09:07:24.128Z,67.00
2019-05-01T09:10:09.051Z,66.40
2019-05-01T09:15:30.195Z,65.90
2019-05-01T09:18:00.772Z,65.80
2019-05-01T09:20:35.710Z,64.50
2019-05-01T09:23:09.425Z,63.70
2019-05-01T09:25:54.797Z,63.40
2019-05-01T09:28:30.128Z,64.20
2019-05-01T09:33:54.230Z,63.40
2019-05-01T09:36:25.094Z,63.40
2019-05-01T09:38:54.985Z,64.50
2019-05-01T09:41:37.126Z,64.90
2019-05-01T09:49:35.168Z,63.00
2019-05-01T09:52:39.901Z,62.50
2019-05-01T10:01:11.505Z,60.70
2019-05-01T10:03:49.391Z,61.20
2019-05-01T10:06:20.847Z,61.30
2019-05-01T10:08:53.294Z,61.10
2019-05-01T10:11:26.632Z,60.00
2019-05-01T10:13:59.720Z,59.50
2019-05-01T10:16:30.562Z,58.20
2019-05-01T10:19:00.580Z,58.00
2019-05-01T10:21:30.690Z,57.20
2019-05-01T10:24:00.988Z,56.70
2019-05-01T10:30:08.945Z,54.80
2019-05-01T10:32:42.255Z,53.70
2019-05-01T10:35:21.065Z,52.20
2019-05-01T10:44:13.601Z,49.00
2019-05-01T10:46:44.466Z,48.10
2019-05-01T10:49:16.205Z,49.00
2019-05-01T10:51:46.554Z,47.90
2019-05-01T10:54:18.840Z,46.70
2019-05-01T10:56:51.518Z,46.90
2019-05-01T10:59:22.629Z,45.50
2019-05-01T11:01:56.672Z,45.20
2019-05-01T11:04:29.648Z,44.80
2019-05-01T11:09:52.812Z,45.50
2019-05-01T11:18:10.497Z,44.10
2019-05-01T11:20:41.371Z,43.80
2019-05-01T11:26:00.586Z,44.20
2019-05-01T11:28:37.565Z,43.60
2019-05-01T11:31:10.022Z,43.30
2019-05-01T11:40:37.152Z,43.30
2019-05-01T11:45:54.969Z,44.20
2019-05-01T11:48:30.247Z,42.30
2019-05-01T11:53:55.183Z,43.20
2019-05-01T11:56:25.164Z,43.70
2019-05-01T12:02:19.424Z,43.60
2019-05-01T12:04:50.223Z,44.90
2019-05-01T12:19:51.085Z,44.20
2019-05-01T12:22:21.305Z,44.40
2019-05-01T12:42:11.979Z,42.60
2019-05-01T12:50:30.848Z,41.10
2019-05-01T13:02:20.913Z,41.10
2019-05-01T13:04:50.806Z,40.20
2019-05-01T13:10:13.269Z,38.80
2019-05-01T13:12:44.291Z,40.80
2019-05-01T13:15:18.223Z,39.90
2019-05-01T13:18:06.478Z,38.90
2019-05-01T13:20:39.859Z,40.10
2019-05-01T13:29:28.667Z,38.70
2019-05-01T13:35:24.938Z,38.70
2019-05-01T13:37:57.499Z,38.40
2019-05-01T13:46:30.940Z,38.40
2019-05-01T13:49:24.326Z,38.50
2019-05-01T13:51:54.971Z,37.80
2019-05-01T14:00:36.094Z,38.80
2019-05-01T14:17:51.335Z,36.70
2019-05-01T14:20:38.812Z,36.10
2019-05-01T14:23:37.426Z,36.80
2019-05-01T14:29:14.578Z,38.20
2019-05-01T14:31:44.663Z,36.00
2019-05-01T14:34:26.064Z,36.50
2019-05-01T14:37:28.569Z,37.10
2019-05-01T14:39:56.062Z,37.10
2019-05-01T14:42:31.147Z,36.70
2019-05-01T14:45:09.654Z,36.60
2019-05-01T14:47:42.919Z,35.90
2019-05-01T14:50:17.113Z,35.30
2019-05-01T14:55:39.290Z,33.80
2019-05-01T14:58:10.028Z,32.80
2019-05-01T15:00:43.548Z,32.50
2019-05-01T15:03:19.174Z,33.50
2019-05-01T15:05:54.460Z,31.00
2019-05-01T15:11:14.068Z,32.60
2019-05-01T15:13:56.701Z,32.80
2019-05-01T15:20:01.741Z,31.10
2019-05-01T15:22:33.576Z,31.00
2019-05-01T15:27:53.436Z,33.00
2019-05-01T15:30:26.933Z,33.40
2019-05-01T15:33:18.221Z,33.30
2019-05-01T15:39:00.250Z,33.00
2019-05-01T15:45:32.880Z,34.50
2019-05-01T15:48:05.032Z,33.30
2019-05-01T15:53:51.864Z,32.80
2019-05-01T15:56:40.753Z,33.70
2019-05-01T16:02:21.586Z,32.70
2019-05-01T16:04:53.984Z,32.60
2019-05-01T16:07:26.202Z,32.40
2019-05-01T16:09:56.924Z,31.50
2019-05-01T16:16:15.898Z,33.00
2019-05-01T16:18:46.287Z,31.50
2019-05-01T16:24:05.678Z,32.30
2019-05-01T16:26:36.640Z,32.80
2019-05-01T16:34:55.175Z,31.70
2019-05-01T16:37:26.059Z,32.40
2019-05-01T16:43:08.861Z,31.20
2019-05-01T16:51:22.212Z,32.20
2019-05-01T16:56:45.697Z,34.40
2019-05-01T16:59:25.171Z,34.30
2019-05-01T17:05:23.940Z,36.20
2019-05-01T17:14:14.834Z,33.80
2019-05-01T17:23:12.613Z,33.30
2019-05-01T17:31:47.632Z,34.50
2019-05-01T17:34:32.425Z,33.10
2019-05-01T17:40:30.646Z,33.60
2019-05-01T17:43:08.168Z,33.40
2019-05-01T17:45:37.020Z,34.10
2019-05-01T17:48:09.833Z,35.00
2019-05-01T17:53:47.646Z,35.70
2019-05-01T18:02:24.238Z,37.40
2019-05-01T18:08:13.658Z,38.00
2019-05-01T18:16:50.599Z,36.00
2019-05-01T18:32:54.125Z,38.50
2019-05-01T18:38:47.653Z,41.90
2019-05-01T18:41:42.486Z,43.90
2019-05-01T18:53:57.558Z,46.00
2019-05-01T18:56:41.830Z,46.10
2019-05-01T18:59:33.003Z,47.40
2019-05-01T19:08:14.148Z,49.30
2019-05-01T19:14:02.920Z,50.50
2019-05-01T19:19:49.814Z,50.60
2019-05-01T19:22:29.224Z,49.70
2019-05-01T19:25:03.911Z,50.60
2019-05-01T19:30:52.269Z,52.50
2019-05-01T19:39:23.946Z,54.00
2019-05-01T19:45:31.353Z,53.90
2019-05-01T19:48:08.079Z,54.10
2019-05-01T19:51:24.152Z,54.60
2019-05-01T19:54:13.190Z,55.40
2019-05-01T20:02:54.314Z,56.50
2019-05-01T20:11:09.672Z,56.90
2019-05-01T20:13:55.433Z,56.90
2019-05-01T20:16:29.348Z,56.90
2019-05-01T20:19:27.121Z,57.30
2019-05-01T20:22:05.755Z,57.60
2019-05-01T20:24:39.897Z,58.00
2019-05-01T20:27:28.327Z,58.60
2019-05-01T20:30:00.285Z,58.90
2019-05-01T20:32:33.400Z,59.40
2019-05-01T20:35:11.511Z,59.80
2019-05-01T20:41:15.952Z,60.10
2019-05-01T20:43:45.906Z,59.00
2019-05-01T20:46:26.046Z,59.30
2019-05-01T20:58:17.278Z,59.10
2019-05-01T21:01:05.905Z,58.90
2019-05-01T21:03:52.532Z,59.30
2019-05-01T21:12:13.021Z,59.50
2019-05-01T21:15:05.109Z,59.90
2019-05-01T21:17:53.295Z,59.90
2019-05-01T21:20:25.644Z,59.60
2019-05-01T21:23:10.216Z,59.90
2019-05-01T21:25:53.728Z,59.80
2019-05-01T21:28:24.622Z,60.50
2019-05-01T21:31:13.843Z,60.50
2019-05-01T21:34:04.215Z,61.20
2019-05-01T21:36:37.856Z,61.70
2019-05-01T21:39:08.713Z,62.00
2019-05-01T21:45:04.321Z,62.30
2019-05-01T21:47:39.798Z,63.10
2019-05-01T21:50:24.883Z,62.90
2019-05-01T21:55:39.603Z,62.90
2019-05-01T22:01:13.147Z,62.60
2019-05-01T22:03:43.806Z,62.60
2019-05-01T22:06:16.687Z,62.90
2019-05-01T22:08:48.056Z,63.00
2019-05-01T22:11:18.627Z,63.00
2019-05-01T22:13:49.909Z,62.90
2019-05-01T22:16:28.155Z,63.30
2019-05-01T22:25:24.195Z,63.20
2019-05-01T22:28:24.006Z,63.50
2019-05-01T22:34:25.613Z,63.40
2019-05-01T22:36:56.112Z,63.30
2019-05-01T22:39:33.183Z,63.50
2019-05-01T22:42:08.867Z,63.40
2019-05-01T22:44:39.716Z,63.10
2019-05-01T22:47:14.995Z,63.50
2019-05-01T22:49:42.816Z,63.30
2019-05-01T22:52:14.077Z,63.40
2019-05-01T22:54:48.597Z,63.60
2019-05-01T22:57:19.574Z,63.30
2019-05-01T22:59:50.191Z,63.20
2019-05-01T23:08:44.402Z,63.20
2019-05-01T23:11:20.074Z,64.50
2019-05-01T23:13:50.354Z,64.80
2019-05-01T23:16:28.823Z,65.00
2019-05-01T23:18:56.577Z,65.40
2019-05-01T23:21:27.798Z,65.50
2019-05-01T23:24:01.877Z,65.70
2019-05-01T23:26:32.831Z,65.60
2019-05-01T23:29:03.259Z,65.70
2019-05-01T23:31:34.303Z,65.70
2019-05-01T23:34:07.302Z,65.10
2019-05-01T23:36:37.665Z,65.20
2019-05-01T23:39:08.379Z,65.00
2019-05-01T23:41:45.765Z,65.40
2019-05-01T23:44:11.692Z,65.60
2019-05-01T23:46:43.663Z,65.50
2019-05-01T23:49:15.119Z,65.60
2019-05-01T23:51:46.722Z,65.50
2019-05-01T23:54:17.846Z,65.50
2019-05-01T23:56:48.360Z,65.70
2019-05-01T23:59:19.350Z,65.80
